sensor_id;sensor_type;location;lat;lon;timestamp;temperature;humidity
9043;DHT22;4556;49.150;8.808;2022-08-03T00:01:08;17.50;99.90
9043;DHT22;4556;49.150;8.808;2022-08-03T00:03:36;17.50;99.90
9043;DHT22;4556;49.150;8.808;2022-08-03T00:06:03;17.40;99.90
9043;DHT22;4556;49.150;8.808;2022-08-03T00:08:31;17.40;99.90
9043;DHT22;4556;49.150;8.808;2022-08-03T00:10:58;17.40;99.90
9043;DHT22;4556;49.150;8.808;2022-08-03T00:15:54;17.40;99.90
9043;DHT22;4556;49.150;8.808;2022-08-03T00:18:22;18.00;99.90
9043;DHT22;4556;49.150;8.808;2022-08-03T00:20:48;17.30;99.90
9043;DHT22;4556;49.150;8.808;2022-08-03T00:23:16;17.50;99.90
9043;DHT22;4556;49.150;8.808;2022-08-03T00:25:43;17.40;99.90
9043;DHT22;4556;49.150;8.808;2022-08-03T00:28:10;17.20;99.90
9043;DHT22;4556;49.150;8.808;2022-08-03T00:30:37;19.60;99.90
9043;DHT22;4556;49.150;8.808;2022-08-03T00:33:06;17.30;99.90
9043;DHT22;4556;49.150;8.808;2022-08-03T00:35:35;17.30;99.90
9043;DHT22;4556;49.150;8.808;2022-08-03T00:38:02;17.30;99.90
9043;DHT22;4556;49.150;8.808;2022-08-03T00:40:29;17.20;99.90
9043;DHT22;4556;49.150;8.808;2022-08-03T00:42:58;17.30;99.90
9043;DHT22;4556;49.150;8.808;2022-08-03T00:45:28;17.20;99.90
9043;DHT22;4556;49.150;8.808;2022-08-03T00:47:56;19.40;99.90
9043;DHT22;4556;49.150;8.808;2022-08-03T00:50:28;17.10;99.90
9043;DHT22;4556;49.150;8.808;2022-08-03T00:52:58;17.10;99.90
9043;DHT22;4556;49.150;8.808;2022-08-03T00:55:25;17.10;99.90
9043;DHT22;4556;49.150;8.808;2022-08-03T00:57:53;17.10;99.90
9043;DHT22;4556;49.150;8.808;2022-08-03T01:00:22;17.10;99.90
9043;DHT22;4556;49.150;8.808;2022-08-03T01:02:50;18.10;99.90
9043;DHT22;4556;49.150;8.808;2022-08-03T01:05:18;17.00;99.90
9043;DHT22;4556;49.150;8.808;2022-08-03T01:07:59;17.00;99.90
9043;DHT22;4556;49.150;8.808;2022-08-03T01:10:32;17.20;99.90
9043;DHT22;4556;49.150;8.808;2022-08-03T01:13:13;17.10;99.90
9043;DHT22;4556;49.150;8.808;2022-08-03T01:15:47;17.30;99.90
9043;DHT22;4556;49.150;8.808;2022-08-03T01:18:21;17.00;99.90
9043;DHT22;4556;49.150;8.808;2022-08-03T01:20:54;14.70;99.90
9043;DHT22;4556;49.150;8.808;2022-08-03T01:23:36;17.80;99.90
9043;DHT22;4556;49.150;8.808;2022-08-03T01:26:20;16.90;99.90
9043;DHT22;4556;49.150;8.808;2022-08-03T01:29:00;17.00;99.90
9043;DHT22;4556;49.150;8.808;2022-08-03T01:31:38;17.20;99.90
9043;DHT22;4556;49.150;8.808;2022-08-03T01:34:11;16.90;99.90
9043;DHT22;4556;49.150;8.808;2022-08-03T01:36:46;17.20;99.90
9043;DHT22;4556;49.150;8.808;2022-08-03T01:39:15;16.70;99.90
9043;DHT22;4556;49.150;8.808;2022-08-03T01:41:47;16.70;99.90
9043;DHT22;4556;49.150;8.808;2022-08-03T01:44:15;16.70;99.90
9043;DHT22;4556;49.150;8.808;2022-08-03T01:46:45;16.90;99.90
9043;DHT22;4556;49.150;8.808;2022-08-03T01:49:14;16.70;99.90
9043;DHT22;4556;49.150;8.808;2022-08-03T01:51:47;16.70;99.90
9043;DHT22;4556;49.150;8.808;2022-08-03T01:54:16;16.70;99.90
9043;DHT22;4556;49.150;8.808;2022-08-03T01:56:45;16.70;99.90
9043;DHT22;4556;49.150;8.808;2022-08-03T01:59:15;16.70;99.90
9043;DHT22;4556;49.150;8.808;2022-08-03T02:01:47;16.70;99.90
9043;DHT22;4556;49.150;8.808;2022-08-03T02:04:17;16.90;99.90
9043;DHT22;4556;49.150;8.808;2022-08-03T02:06:45;16.90;99.90
9043;DHT22;4556;49.150;8.808;2022-08-03T02:09:16;17.00;99.90
9043;DHT22;4556;49.150;8.808;2022-08-03T02:11:46;17.40;99.90
9043;DHT22;4556;49.150;8.808;2022-08-03T02:14:15;17.20;99.90
9043;DHT22;4556;49.150;8.808;2022-08-03T02:16:43;17.20;99.90
9043;DHT22;4556;49.150;8.808;2022-08-03T02:19:13;18.30;99.90
9043;DHT22;4556;49.150;8.808;2022-08-03T02:21:43;17.40;99.90
9043;DHT22;4556;49.150;8.808;2022-08-03T02:24:11;17.00;99.90
9043;DHT22;4556;49.150;8.808;2022-08-03T02:26:40;17.00;99.90
9043;DHT22;4556;49.150;8.808;2022-08-03T02:29:12;17.00;99.90
9043;DHT22;4556;49.150;8.808;2022-08-03T02:31:42;17.10;99.90
9043;DHT22;4556;49.150;8.808;2022-08-03T02:34:13;17.00;99.90
9043;DHT22;4556;49.150;8.808;2022-08-03T02:36:45;16.90;99.90
9043;DHT22;4556;49.150;8.808;2022-08-03T02:39:16;17.10;99.90
9043;DHT22;4556;49.150;8.808;2022-08-03T02:41:49;17.80;99.90
9043;DHT22;4556;49.150;8.808;2022-08-03T02:44:21;19.20;99.90
9043;DHT22;4556;49.150;8.808;2022-08-03T02:46:53;17.00;99.90
9043;DHT22;4556;49.150;8.808;2022-08-03T02:49:24;17.00;99.90
9043;DHT22;4556;49.150;8.808;2022-08-03T02:51:54;17.10;99.90
9043;DHT22;4556;49.150;8.808;2022-08-03T02:54:23;17.10;99.90
9043;DHT22;4556;49.150;8.808;2022-08-03T02:56:52;17.20;99.90
9043;DHT22;4556;49.150;8.808;2022-08-03T02:59:20;17.20;99.90
9043;DHT22;4556;49.150;8.808;2022-08-03T03:01:48;17.30;99.90
9043;DHT22;4556;49.150;8.808;2022-08-03T03:04:16;17.40;99.90
9043;DHT22;4556;49.150;8.808;2022-08-03T03:06:46;17.80;99.90
9043;DHT22;4556;49.150;8.808;2022-08-03T03:09:16;17.30;99.90
9043;DHT22;4556;49.150;8.808;2022-08-03T03:11:43;17.30;99.90
9043;DHT22;4556;49.150;8.808;2022-08-03T03:14:11;17.60;99.90
9043;DHT22;4556;49.150;8.808;2022-08-03T03:16:40;17.50;99.90
9043;DHT22;4556;49.150;8.808;2022-08-03T03:19:08;17.60;99.90
9043;DHT22;4556;49.150;8.808;2022-08-03T03:21:37;17.50;99.90
9043;DHT22;4556;49.150;8.808;2022-08-03T03:24:07;17.50;99.90
9043;DHT22;4556;49.150;8.808;2022-08-03T03:26:35;17.50;99.90
9043;DHT22;4556;49.150;8.808;2022-08-03T03:29:03;17.60;99.90
9043;DHT22;4556;49.150;8.808;2022-08-03T03:31:31;17.50;99.90
9043;DHT22;4556;49.150;8.808;2022-08-03T03:33:58;17.40;99.90
9043;DHT22;4556;49.150;8.808;2022-08-03T03:36:26;17.40;99.90
9043;DHT22;4556;49.150;8.808;2022-08-03T03:38:54;17.30;99.90
9043;DHT22;4556;49.150;8.808;2022-08-03T03:41:23;17.20;99.90
9043;DHT22;4556;49.150;8.808;2022-08-03T03:46:18;17.30;99.90
9043;DHT22;4556;49.150;8.808;2022-08-03T03:48:45;19.60;99.90
9043;DHT22;4556;49.150;8.808;2022-08-03T03:51:13;17.40;99.90
9043;DHT22;4556;49.150;8.808;2022-08-03T03:53:46;17.30;99.90
9043;DHT22;4556;49.150;8.808;2022-08-03T03:56:19;17.30;99.90
9043;DHT22;4556;49.150;8.808;2022-08-03T03:58:48;17.60;99.90
9043;DHT22;4556;49.150;8.808;2022-08-03T04:01:15;18.50;99.90
9043;DHT22;4556;49.150;8.808;2022-08-03T04:03:43;17.10;99.90
9043;DHT22;4556;49.150;8.808;2022-08-03T04:06:10;17.00;99.90
9043;DHT22;4556;49.150;8.808;2022-08-03T04:08:55;16.90;99.90
9043;DHT22;4556;49.150;8.808;2022-08-03T04:11:42;16.90;99.90
9043;DHT22;4556;49.150;8.808;2022-08-03T04:14:15;16.90;99.90
9043;DHT22;4556;49.150;8.808;2022-08-03T04:16:46;16.90;99.90
9043;DHT22;4556;49.150;8.808;2022-08-03T04:19:17;16.90;99.90
9043;DHT22;4556;49.150;8.808;2022-08-03T04:21:50;16.90;99.90
9043;DHT22;4556;49.150;8.808;2022-08-03T04:24:19;17.20;99.90
9043;DHT22;4556;49.150;8.808;2022-08-03T04:26:48;16.90;99.90
9043;DHT22;4556;49.150;8.808;2022-08-03T04:29:18;17.10;99.90
9043;DHT22;4556;49.150;8.808;2022-08-03T04:31:47;17.30;99.90
9043;DHT22;4556;49.150;8.808;2022-08-03T04:34:15;17.40;99.90
9043;DHT22;4556;49.150;8.808;2022-08-03T04:36:47;17.40;99.90
9043;DHT22;4556;49.150;8.808;2022-08-03T04:39:18;17.50;99.90
9043;DHT22;4556;49.150;8.808;2022-08-03T04:41:49;17.40;99.90
9043;DHT22;4556;49.150;8.808;2022-08-03T04:44:20;17.40;99.90
9043;DHT22;4556;49.150;8.808;2022-08-03T04:46:49;17.40;99.90
9043;DHT22;4556;49.150;8.808;2022-08-03T04:49:17;17.60;99.90
9043;DHT22;4556;49.150;8.808;2022-08-03T04:51:46;17.80;99.90
9043;DHT22;4556;49.150;8.808;2022-08-03T04:54:14;19.00;99.90
9043;DHT22;4556;49.150;8.808;2022-08-03T04:56:42;17.60;99.90
9043;DHT22;4556;49.150;8.808;2022-08-03T04:59:10;17.60;99.90
9043;DHT22;4556;49.150;8.808;2022-08-03T05:01:40;17.80;99.90
9043;DHT22;4556;49.150;8.808;2022-08-03T05:04:07;17.70;99.90
9043;DHT22;4556;49.150;8.808;2022-08-03T05:06:34;17.90;99.90
9043;DHT22;4556;49.150;8.808;2022-08-03T05:09:02;19.70;99.90
9043;DHT22;4556;49.150;8.808;2022-08-03T05:11:30;18.10;99.90
9043;DHT22;4556;49.150;8.808;2022-08-03T05:13:57;18.10;99.90
9043;DHT22;4556;49.150;8.808;2022-08-03T05:16:24;18.30;99.90
9043;DHT22;4556;49.150;8.808;2022-08-03T05:18:53;18.40;99.90
9043;DHT22;4556;49.150;8.808;2022-08-03T05:21:20;18.50;99.90
9043;DHT22;4556;49.150;8.808;2022-08-03T05:23:48;18.70;99.90
9043;DHT22;4556;49.150;8.808;2022-08-03T05:26:15;20.80;99.90
9043;DHT22;4556;49.150;8.808;2022-08-03T05:28:41;18.70;99.90
9043;DHT22;4556;49.150;8.808;2022-08-03T05:31:09;19.00;99.90
9043;DHT22;4556;49.150;8.808;2022-08-03T05:33:38;19.30;99.90
9043;DHT22;4556;49.150;8.808;2022-08-03T05:36:06;19.10;99.90
9043;DHT22;4556;49.150;8.808;2022-08-03T05:38:34;19.10;99.90
9043;DHT22;4556;49.150;8.808;2022-08-03T05:41:02;19.20;99.90
9043;DHT22;4556;49.150;8.808;2022-08-03T05:43:29;19.40;99.90
9043;DHT22;4556;49.150;8.808;2022-08-03T05:45:57;19.50;99.90
9043;DHT22;4556;49.150;8.808;2022-08-03T05:48:25;19.50;99.90
9043;DHT22;4556;49.150;8.808;2022-08-03T05:50:53;19.60;99.90
9043;DHT22;4556;49.150;8.808;2022-08-03T05:53:21;19.70;99.90
9043;DHT22;4556;49.150;8.808;2022-08-03T05:55:49;19.80;99.90
9043;DHT22;4556;49.150;8.808;2022-08-03T05:58:16;19.90;99.90
9043;DHT22;4556;49.150;8.808;2022-08-03T06:00:43;20.00;99.90
9043;DHT22;4556;49.150;8.808;2022-08-03T06:03:10;20.10;99.90
9043;DHT22;4556;49.150;8.808;2022-08-03T06:05:37;20.20;99.90
9043;DHT22;4556;49.150;8.808;2022-08-03T06:08:05;20.30;99.90
9043;DHT22;4556;49.150;8.808;2022-08-03T06:10:33;20.40;99.90
9043;DHT22;4556;49.150;8.808;2022-08-03T06:13:01;20.50;99.90
9043;DHT22;4556;49.150;8.808;2022-08-03T06:15:28;20.70;99.90
9043;DHT22;4556;49.150;8.808;2022-08-03T06:17:55;20.80;99.90
9043;DHT22;4556;49.150;8.808;2022-08-03T06:20:23;21.10;99.90
9043;DHT22;4556;49.150;8.808;2022-08-03T06:25:18;21.50;99.90
9043;DHT22;4556;49.150;8.808;2022-08-03T06:27:47;21.60;99.90
9043;DHT22;4556;49.150;8.808;2022-08-03T06:30:14;21.90;99.90
9043;DHT22;4556;49.150;8.808;2022-08-03T06:32:43;22.10;99.90
9043;DHT22;4556;49.150;8.808;2022-08-03T06:35:11;22.20;99.90
9043;DHT22;4556;49.150;8.808;2022-08-03T06:37:42;22.40;99.90
9043;DHT22;4556;49.150;8.808;2022-08-03T06:40:11;22.60;99.90
9043;DHT22;4556;49.150;8.808;2022-08-03T06:42:39;22.70;99.90
9043;DHT22;4556;49.150;8.808;2022-08-03T06:45:10;22.90;99.90
9043;DHT22;4556;49.150;8.808;2022-08-03T06:47:38;23.10;99.90
9043;DHT22;4556;49.150;8.808;2022-08-03T06:50:06;23.40;99.90
9043;DHT22;4556;49.150;8.808;2022-08-03T06:52:34;23.40;99.90
9043;DHT22;4556;49.150;8.808;2022-08-03T06:55:01;23.60;99.90
9043;DHT22;4556;49.150;8.808;2022-08-03T06:57:31;23.80;99.90
9043;DHT22;4556;49.150;8.808;2022-08-03T06:59:58;23.90;99.90
9043;DHT22;4556;49.150;8.808;2022-08-03T07:02:29;24.00;99.90
9043;DHT22;4556;49.150;8.808;2022-08-03T07:04:56;24.30;99.90
9043;DHT22;4556;49.150;8.808;2022-08-03T07:07:24;24.40;99.90
9043;DHT22;4556;49.150;8.808;2022-08-03T07:09:51;24.70;99.90
9043;DHT22;4556;49.150;8.808;2022-08-03T07:12:18;24.80;99.90
9043;DHT22;4556;49.150;8.808;2022-08-03T07:14:45;25.00;99.90
9043;DHT22;4556;49.150;8.808;2022-08-03T07:17:12;25.10;99.90
9043;DHT22;4556;49.150;8.808;2022-08-03T07:19:41;25.10;99.90
9043;DHT22;4556;49.150;8.808;2022-08-03T07:22:09;25.40;99.90
9043;DHT22;4556;49.150;8.808;2022-08-03T07:24:36;25.40;99.90
9043;DHT22;4556;49.150;8.808;2022-08-03T07:27:03;25.50;99.90
9043;DHT22;4556;49.150;8.808;2022-08-03T07:29:30;24.80;99.90
9043;DHT22;4556;49.150;8.808;2022-08-03T07:31:58;25.90;99.90
9043;DHT22;4556;49.150;8.808;2022-08-03T07:34:25;26.20;99.90
9043;DHT22;4556;49.150;8.808;2022-08-03T07:36:54;26.40;99.90
9043;DHT22;4556;49.150;8.808;2022-08-03T07:39:21;26.40;99.90
9043;DHT22;4556;49.150;8.808;2022-08-03T07:41:49;26.40;99.90
9043;DHT22;4556;49.150;8.808;2022-08-03T07:44:16;26.60;99.90
9043;DHT22;4556;49.150;8.808;2022-08-03T07:46:44;26.80;99.90
9043;DHT22;4556;49.150;8.808;2022-08-03T07:49:11;26.90;99.90
9043;DHT22;4556;49.150;8.808;2022-08-03T07:51:38;27.20;99.90
9043;DHT22;4556;49.150;8.808;2022-08-03T07:54:07;27.30;99.90
9043;DHT22;4556;49.150;8.808;2022-08-03T07:56:34;27.50;99.90
9043;DHT22;4556;49.150;8.808;2022-08-03T07:59:02;27.50;99.90
9043;DHT22;4556;49.150;8.808;2022-08-03T08:01:30;27.30;99.90
9043;DHT22;4556;49.150;8.808;2022-08-03T08:04:01;27.40;99.90
9043;DHT22;4556;49.150;8.808;2022-08-03T08:06:28;27.50;99.90
9043;DHT22;4556;49.150;8.808;2022-08-03T08:08:57;27.70;99.90
9043;DHT22;4556;49.150;8.808;2022-08-03T08:11:28;27.90;99.90
9043;DHT22;4556;49.150;8.808;2022-08-03T08:13:55;28.00;99.90
9043;DHT22;4556;49.150;8.808;2022-08-03T08:16:22;28.10;99.90
9043;DHT22;4556;49.150;8.808;2022-08-03T08:18:49;28.40;99.90
9043;DHT22;4556;49.150;8.808;2022-08-03T08:21:16;28.60;99.90
9043;DHT22;4556;49.150;8.808;2022-08-03T08:23:43;28.70;99.90
9043;DHT22;4556;49.150;8.808;2022-08-03T08:26:10;28.70;99.90
9043;DHT22;4556;49.150;8.808;2022-08-03T08:28:39;28.80;99.90
9043;DHT22;4556;49.150;8.808;2022-08-03T08:31:06;29.00;99.90
9043;DHT22;4556;49.150;8.808;2022-08-03T08:33:34;29.10;99.90
9043;DHT22;4556;49.150;8.808;2022-08-03T08:36:01;29.00;99.90
9043;DHT22;4556;49.150;8.808;2022-08-03T08:38:28;29.20;99.90
9043;DHT22;4556;49.150;8.808;2022-08-03T08:40:55;29.30;99.90
9043;DHT22;4556;49.150;8.808;2022-08-03T08:43:23;29.50;99.90
9043;DHT22;4556;49.150;8.808;2022-08-03T08:45:53;29.50;99.90
9043;DHT22;4556;49.150;8.808;2022-08-03T08:48:23;29.40;99.90
9043;DHT22;4556;49.150;8.808;2022-08-03T08:50:55;29.40;99.90
9043;DHT22;4556;49.150;8.808;2022-08-03T08:53:25;29.70;99.90
9043;DHT22;4556;49.150;8.808;2022-08-03T08:55:56;29.90;99.90
9043;DHT22;4556;49.150;8.808;2022-08-03T08:58:36;30.10;99.90
9043;DHT22;4556;49.150;8.808;2022-08-03T09:01:04;28.60;99.90
9043;DHT22;4556;49.150;8.808;2022-08-03T09:03:32;30.00;99.90
9043;DHT22;4556;49.150;8.808;2022-08-03T09:06:00;30.10;99.90
9043;DHT22;4556;49.150;8.808;2022-08-03T09:08:29;30.30;99.90
9043;DHT22;4556;49.150;8.808;2022-08-03T09:10:56;30.40;99.90
9043;DHT22;4556;49.150;8.808;2022-08-03T09:13:23;30.60;99.90
9043;DHT22;4556;49.150;8.808;2022-08-03T09:16:11;30.60;99.90
9043;DHT22;4556;49.150;8.808;2022-08-03T09:18:39;30.80;99.90
9043;DHT22;4556;49.150;8.808;2022-08-03T09:21:17;31.00;99.90
9043;DHT22;4556;49.150;8.808;2022-08-03T09:23:46;31.00;99.90
9043;DHT22;4556;49.150;8.808;2022-08-03T09:26:19;31.20;99.90
9043;DHT22;4556;49.150;8.808;2022-08-03T09:28:53;31.30;99.90
9043;DHT22;4556;49.150;8.808;2022-08-03T09:31:30;31.30;99.50
9043;DHT22;4556;49.150;8.808;2022-08-03T09:34:06;31.30;99.60
9043;DHT22;4556;49.150;8.808;2022-08-03T09:36:35;31.20;99.70
9043;DHT22;4556;49.150;8.808;2022-08-03T09:39:03;31.00;99.60
9043;DHT22;4556;49.150;8.808;2022-08-03T09:41:31;31.00;99.90
9043;DHT22;4556;49.150;8.808;2022-08-03T09:43:58;31.10;99.50
9043;DHT22;4556;49.150;8.808;2022-08-03T09:46:25;31.30;99.90
9043;DHT22;4556;49.150;8.808;2022-08-03T09:49:10;31.40;99.90
9043;DHT22;4556;49.150;8.808;2022-08-03T09:51:38;31.20;99.90
9043;DHT22;4556;49.150;8.808;2022-08-03T09:54:06;31.40;99.30
9043;DHT22;4556;49.150;8.808;2022-08-03T09:56:41;31.50;99.50
9043;DHT22;4556;49.150;8.808;2022-08-03T09:59:09;31.60;98.00
9043;DHT22;4556;49.150;8.808;2022-08-03T10:01:37;31.60;98.10
9043;DHT22;4556;49.150;8.808;2022-08-03T10:04:13;31.60;99.20
9043;DHT22;4556;49.150;8.808;2022-08-03T10:06:43;31.60;98.10
9043;DHT22;4556;49.150;8.808;2022-08-03T10:09:12;31.50;99.10
9043;DHT22;4556;49.150;8.808;2022-08-03T10:11:41;31.60;98.00
9043;DHT22;4556;49.150;8.808;2022-08-03T10:14:11;31.70;99.10
9043;DHT22;4556;49.150;8.808;2022-08-03T10:16:44;32.00;97.70
9043;DHT22;4556;49.150;8.808;2022-08-03T10:19:17;32.00;97.10
9043;DHT22;4556;49.150;8.808;2022-08-03T10:21:49;32.00;97.80
9043;DHT22;4556;49.150;8.808;2022-08-03T10:24:23;32.00;98.60
9043;DHT22;4556;49.150;8.808;2022-08-03T10:26:52;32.10;98.90
9043;DHT22;4556;49.150;8.808;2022-08-03T10:29:27;32.20;98.50
9043;DHT22;4556;49.150;8.808;2022-08-03T10:31:57;32.30;97.70
9043;DHT22;4556;49.150;8.808;2022-08-03T10:34:30;32.40;97.60
9043;DHT22;4556;49.150;8.808;2022-08-03T10:37:00;32.40;97.30
9043;DHT22;4556;49.150;8.808;2022-08-03T10:39:36;32.40;97.20
9043;DHT22;4556;49.150;8.808;2022-08-03T10:42:04;32.50;97.50
9043;DHT22;4556;49.150;8.808;2022-08-03T10:44:36;32.60;97.20
9043;DHT22;4556;49.150;8.808;2022-08-03T10:47:05;32.50;97.50
9043;DHT22;4556;49.150;8.808;2022-08-03T10:49:35;32.50;96.80
9043;DHT22;4556;49.150;8.808;2022-08-03T10:52:03;32.60;96.50
9043;DHT22;4556;49.150;8.808;2022-08-03T10:54:41;32.60;96.60
9043;DHT22;4556;49.150;8.808;2022-08-03T10:57:57;32.60;96.90
9043;DHT22;4556;49.150;8.808;2022-08-03T11:00:26;32.70;96.50
9043;DHT22;4556;49.150;8.808;2022-08-03T11:03:05;32.80;95.80
9043;DHT22;4556;49.150;8.808;2022-08-03T11:05:36;33.00;95.60
9043;DHT22;4556;49.150;8.808;2022-08-03T11:08:19;32.90;95.60
9043;DHT22;4556;49.150;8.808;2022-08-03T11:10:48;32.70;95.40
9043;DHT22;4556;49.150;8.808;2022-08-03T11:13:17;32.70;95.80
9043;DHT22;4556;49.150;8.808;2022-08-03T11:15:46;32.70;94.40
9043;DHT22;4556;49.150;8.808;2022-08-03T11:18:14;32.70;95.10
9043;DHT22;4556;49.150;8.808;2022-08-03T11:20:49;32.70;95.20
9043;DHT22;4556;49.150;8.808;2022-08-03T11:23:19;32.50;95.40
9043;DHT22;4556;49.150;8.808;2022-08-03T11:26:14;32.80;95.50
9043;DHT22;4556;49.150;8.808;2022-08-03T11:28:43;32.70;95.00
9043;DHT22;4556;49.150;8.808;2022-08-03T11:31:45;32.60;95.20
9043;DHT22;4556;49.150;8.808;2022-08-03T11:34:14;32.70;94.80
9043;DHT22;4556;49.150;8.808;2022-08-03T11:37:24;32.60;95.00
9043;DHT22;4556;49.150;8.808;2022-08-03T11:39:53;32.50;94.90
9043;DHT22;4556;49.150;8.808;2022-08-03T11:42:40;32.60;96.50
9043;DHT22;4556;49.150;8.808;2022-08-03T11:45:10;32.60;95.60
9043;DHT22;4556;49.150;8.808;2022-08-03T11:47:38;32.70;94.60
9043;DHT22;4556;49.150;8.808;2022-08-03T11:50:06;32.80;94.30
9043;DHT22;4556;49.150;8.808;2022-08-03T11:52:38;32.70;94.60
9043;DHT22;4556;49.150;8.808;2022-08-03T11:55:14;32.70;94.00
9043;DHT22;4556;49.150;8.808;2022-08-03T11:57:41;32.60;94.60
9043;DHT22;4556;49.150;8.808;2022-08-03T12:00:25;32.60;93.80
9043;DHT22;4556;49.150;8.808;2022-08-03T12:03:01;32.60;94.60
9043;DHT22;4556;49.150;8.808;2022-08-03T12:05:33;32.50;93.90
9043;DHT22;4556;49.150;8.808;2022-08-03T12:08:02;32.40;93.70
9043;DHT22;4556;49.150;8.808;2022-08-03T12:10:29;32.40;95.00
9043;DHT22;4556;49.150;8.808;2022-08-03T12:12:58;32.40;94.20
9043;DHT22;4556;49.150;8.808;2022-08-03T12:15:26;32.50;95.20
9043;DHT22;4556;49.150;8.808;2022-08-03T12:17:55;32.50;94.90
9043;DHT22;4556;49.150;8.808;2022-08-03T12:20:24;32.70;94.90
9043;DHT22;4556;49.150;8.808;2022-08-03T12:22:52;32.70;94.80
9043;DHT22;4556;49.150;8.808;2022-08-03T12:25:22;32.80;95.70
9043;DHT22;4556;49.150;8.808;2022-08-03T12:28:07;32.90;95.00
9043;DHT22;4556;49.150;8.808;2022-08-03T12:30:34;33.10;93.80
9043;DHT22;4556;49.150;8.808;2022-08-03T12:33:14;33.20;93.60
9043;DHT22;4556;49.150;8.808;2022-08-03T12:35:45;33.10;92.50
9043;DHT22;4556;49.150;8.808;2022-08-03T12:38:12;33.00;93.30
9043;DHT22;4556;49.150;8.808;2022-08-03T12:40:41;32.80;93.90
9043;DHT22;4556;49.150;8.808;2022-08-03T12:43:12;32.80;93.60
9043;DHT22;4556;49.150;8.808;2022-08-03T12:45:40;32.60;93.10
9043;DHT22;4556;49.150;8.808;2022-08-03T12:48:09;32.60;93.80
9043;DHT22;4556;49.150;8.808;2022-08-03T12:50:37;32.60;94.20
9043;DHT22;4556;49.150;8.808;2022-08-03T12:53:08;32.80;93.00
9043;DHT22;4556;49.150;8.808;2022-08-03T12:55:36;32.90;93.30
9043;DHT22;4556;49.150;8.808;2022-08-03T12:58:07;33.20;94.00
9043;DHT22;4556;49.150;8.808;2022-08-03T13:00:36;33.00;92.70
9043;DHT22;4556;49.150;8.808;2022-08-03T13:03:06;33.10;93.50
9043;DHT22;4556;49.150;8.808;2022-08-03T13:05:42;33.10;93.00
9043;DHT22;4556;49.150;8.808;2022-08-03T13:08:17;33.00;93.10
9043;DHT22;4556;49.150;8.808;2022-08-03T13:10:45;33.00;93.60
9043;DHT22;4556;49.150;8.808;2022-08-03T13:13:14;33.10;93.10
9043;DHT22;4556;49.150;8.808;2022-08-03T13:15:41;32.90;93.70
9043;DHT22;4556;49.150;8.808;2022-08-03T13:18:09;33.20;93.70
9043;DHT22;4556;49.150;8.808;2022-08-03T13:20:36;33.30;93.30
9043;DHT22;4556;49.150;8.808;2022-08-03T13:23:03;32.90;93.10
9043;DHT22;4556;49.150;8.808;2022-08-03T13:25:30;32.90;93.50
9043;DHT22;4556;49.150;8.808;2022-08-03T13:27:57;33.00;92.90
9043;DHT22;4556;49.150;8.808;2022-08-03T13:30:26;33.20;92.60
9043;DHT22;4556;49.150;8.808;2022-08-03T13:32:53;33.20;92.00
9043;DHT22;4556;49.150;8.808;2022-08-03T13:35:20;33.10;93.00
9043;DHT22;4556;49.150;8.808;2022-08-03T13:37:48;33.10;93.50
9043;DHT22;4556;49.150;8.808;2022-08-03T13:40:15;33.20;92.80
9043;DHT22;4556;49.150;8.808;2022-08-03T13:42:42;33.20;93.00
9043;DHT22;4556;49.150;8.808;2022-08-03T13:45:09;33.20;93.10
9043;DHT22;4556;49.150;8.808;2022-08-03T13:47:38;33.20;93.00
9043;DHT22;4556;49.150;8.808;2022-08-03T13:50:06;33.40;93.30
9043;DHT22;4556;49.150;8.808;2022-08-03T13:52:34;33.30;92.40
9043;DHT22;4556;49.150;8.808;2022-08-03T13:55:02;33.30;92.20
9043;DHT22;4556;49.150;8.808;2022-08-03T13:57:30;33.50;92.30
9043;DHT22;4556;49.150;8.808;2022-08-03T13:59:57;31.50;91.50
9043;DHT22;4556;49.150;8.808;2022-08-03T14:02:24;32.90;91.90
9043;DHT22;4556;49.150;8.808;2022-08-03T14:04:52;33.10;93.20
9043;DHT22;4556;49.150;8.808;2022-08-03T14:07:20;33.00;92.40
9043;DHT22;4556;49.150;8.808;2022-08-03T14:09:47;32.90;92.70
9043;DHT22;4556;49.150;8.808;2022-08-03T14:12:14;33.00;91.80
9043;DHT22;4556;49.150;8.808;2022-08-03T14:14:42;33.00;91.20
9043;DHT22;4556;49.150;8.808;2022-08-03T14:17:09;33.00;92.10
9043;DHT22;4556;49.150;8.808;2022-08-03T14:19:36;33.00;91.50
9043;DHT22;4556;49.150;8.808;2022-08-03T14:22:05;33.00;91.70
9043;DHT22;4556;49.150;8.808;2022-08-03T14:24:32;33.00;92.60
9043;DHT22;4556;49.150;8.808;2022-08-03T14:26:59;35.10;92.90
9043;DHT22;4556;49.150;8.808;2022-08-03T14:29:26;33.20;92.40
9043;DHT22;4556;49.150;8.808;2022-08-03T14:31:54;33.20;91.70
9043;DHT22;4556;49.150;8.808;2022-08-03T14:34:21;33.10;91.20
9043;DHT22;4556;49.150;8.808;2022-08-03T14:36:49;33.10;92.70
9043;DHT22;4556;49.150;8.808;2022-08-03T14:39:24;33.20;91.70
9043;DHT22;4556;49.150;8.808;2022-08-03T14:41:51;33.20;91.10
9043;DHT22;4556;49.150;8.808;2022-08-03T14:44:18;33.20;92.20
9043;DHT22;4556;49.150;8.808;2022-08-03T14:46:45;33.20;92.10
9043;DHT22;4556;49.150;8.808;2022-08-03T14:49:12;33.30;92.00
9043;DHT22;4556;49.150;8.808;2022-08-03T14:51:39;33.40;92.50
9043;DHT22;4556;49.150;8.808;2022-08-03T14:54:06;33.50;91.00
9043;DHT22;4556;49.150;8.808;2022-08-03T14:56:35;33.50;90.90
9043;DHT22;4556;49.150;8.808;2022-08-03T14:59:03;33.40;91.70
9043;DHT22;4556;49.150;8.808;2022-08-03T15:01:30;33.30;91.30
9043;DHT22;4556;49.150;8.808;2022-08-03T15:03:57;33.50;91.00
9043;DHT22;4556;49.150;8.808;2022-08-03T15:06:24;33.10;91.00
9043;DHT22;4556;49.150;8.808;2022-08-03T15:08:52;33.00;90.60
9043;DHT22;4556;49.150;8.808;2022-08-03T15:11:19;33.00;91.40
9043;DHT22;4556;49.150;8.808;2022-08-03T15:13:48;33.00;90.70
9043;DHT22;4556;49.150;8.808;2022-08-03T15:16:15;33.20;92.70
9043;DHT22;4556;49.150;8.808;2022-08-03T15:18:42;33.00;92.60
9043;DHT22;4556;49.150;8.808;2022-08-03T15:21:09;32.90;91.10
9043;DHT22;4556;49.150;8.808;2022-08-03T15:23:36;32.90;91.00
9043;DHT22;4556;49.150;8.808;2022-08-03T15:26:05;32.90;91.60
9043;DHT22;4556;49.150;8.808;2022-08-03T15:28:33;33.00;91.70
9043;DHT22;4556;49.150;8.808;2022-08-03T15:31:03;32.80;91.30
9043;DHT22;4556;49.150;8.808;2022-08-03T15:33:33;32.80;92.30
9043;DHT22;4556;49.150;8.808;2022-08-03T15:36:01;33.00;91.00
9043;DHT22;4556;49.150;8.808;2022-08-03T15:38:28;32.90;92.00
9043;DHT22;4556;49.150;8.808;2022-08-03T15:40:55;32.80;91.70
9043;DHT22;4556;49.150;8.808;2022-08-03T15:43:23;32.70;91.20
9043;DHT22;4556;49.150;8.808;2022-08-03T15:45:51;32.70;91.00
9043;DHT22;4556;49.150;8.808;2022-08-03T15:48:20;32.70;91.60
9043;DHT22;4556;49.150;8.808;2022-08-03T15:50:50;32.60;91.80
9043;DHT22;4556;49.150;8.808;2022-08-03T15:53:19;32.60;91.40
9043;DHT22;4556;49.150;8.808;2022-08-03T15:55:46;32.30;91.70
9043;DHT22;4556;49.150;8.808;2022-08-03T15:58:13;32.60;90.70
9043;DHT22;4556;49.150;8.808;2022-08-03T16:00:41;32.30;90.90
9043;DHT22;4556;49.150;8.808;2022-08-03T16:03:09;32.50;91.60
9043;DHT22;4556;49.150;8.808;2022-08-03T16:05:38;32.40;91.50
9043;DHT22;4556;49.150;8.808;2022-08-03T16:08:05;32.40;91.50
9043;DHT22;4556;49.150;8.808;2022-08-03T16:10:32;32.30;91.60
9043;DHT22;4556;49.150;8.808;2022-08-03T16:12:59;32.20;92.40
9043;DHT22;4556;49.150;8.808;2022-08-03T16:15:27;32.30;91.40
9043;DHT22;4556;49.150;8.808;2022-08-03T16:17:54;32.20;91.90
9043;DHT22;4556;49.150;8.808;2022-08-03T16:20:21;32.20;92.30
9043;DHT22;4556;49.150;8.808;2022-08-03T16:22:51;32.10;92.30
9043;DHT22;4556;49.150;8.808;2022-08-03T16:25:18;32.10;91.50